Terminal Aerodrome Forecast
Issued by NWS

Home | Current Version | Previous Version | Text Only | Print | Product List | Glossary On
Versions: 1 2 3 4 5 6 7 8 9 10 11 12
244
FTUS46 KMFR 240537
TAFLMT
TAF
KLMT 240537Z 2406/2506 VRB05KT P6SM FEW100
     FM250000 27008KT P6SM SCT080 SCT200
     FM250200 32012G17KT P6SM SCT080 BKN120
     FM250400 33009KT P6SM SCT060 BKN100=

USA.gov is the U.S. government's official web portal to all federal, state and local government web resources and services.